Akron Fulton International Airport Akron US
ICAO: KAKR
IATA: AKC
Category: Medium
Scheduled Services: No

Elevation: 1067 ft
TransAlt. 18000 ft.

Airport Communications:
APP/DEP:118.6
ASOS:126.825
CTAF/UNICOM:123.075
CLEVELAND RDO:114.4

KAKR Zoom In..

Runways:

(A) RW 01 length 2337 ft width 100 ft
LOC 110.90 / hdg 8

(B) RW 07 length 6336 ft width 150 ft
LOC 110.90 / hdg 69

(C) RW 19 length 2337 ft width 100 ft
LOC 110.90 / hdg 188

(D) RW 25 length 6336 ft width 150 ft
LOC 110.90 / hdg 249

Location; KAKR
Day. 30 / Time. 19.54 Zulu
* Altimeter: 30.08
* Temperature: 21° c. 69.8°f.
* Wind from: 320° Speed 09 kn with Gusts up to 19 kn.
Dewpoint: 09° c.
Visibility: 10 Statute Miles.
Clouds: Few 4900 ft.
Clouds: Broken 6500 ft.

KAKR 301954Z AUTO 32009G19KT 10SM FEW049 BKN065 21/09 A3008 RMK AO2 SLP182 T02110089


Wind From 320°
Speed 09 kn.

 
 
jpsmedia worldairports.se 2020   terms of use